Time;durP1;ratioP1;P1;durP2;ratioP2;P2;SDS_P1;SDS_P2;PMS_P1;PMS_P2;Temp;Humidity;BMP_temperature;BMP_pressure;BME280_temperature;BME280_humidity;BME280_pressure;Samples;Min_cycle;Max_cycle;Signal;HPM_P1;HPM_P2
2023/09/22 00:00:18;;;;;;;8.63;3.83;;;;;;;20.46;57.44;95031.78;4914456;29;20031;-80
2023/09/22 00:02:45;;;;;;;6.32;3.70;;;;;;;20.42;57.32;95040.38;4914353;29;20031;-81
2023/09/22 00:05:13;;;;;;;9.52;3.53;;;;;;;20.40;57.72;95037.28;4931568;29;20102;-81
2023/09/22 00:07:40;;;;;;;5.57;3.60;;;;;;;20.34;57.60;95002.25;4929672;29;20024;-81
2023/09/22 00:10:06;;;;;;;9.48;4.65;;;;;;;20.28;59.05;95018.97;4914302;29;20031;-82
2023/09/22 00:12:32;;;;;;;7.28;3.90;;;;;;;20.30;59.61;95038.00;4931300;29;20094;-80
2023/09/22 00:14:58;;;;;;;6.78;3.67;;;;;;;20.33;59.65;95026.59;4914091;29;20529;-80
2023/09/22 00:17:24;;;;;;;6.18;3.70;;;;;;;20.34;60.23;95028.13;4931161;29;20144;-81
2023/09/22 00:19:49;;;;;;;7.10;3.78;;;;;;;20.42;60.42;95051.53;4931096;29;20032;-81
2023/09/22 00:22:15;;;;;;;6.13;3.50;;;;;;;20.39;60.54;95035.78;4930954;29;20035;-82
2023/09/22 00:24:41;;;;;;;9.00;3.70;;;;;;;20.43;60.35;95043.94;4930690;29;20035;-83
2023/09/22 00:27:06;;;;;;;8.57;3.47;;;;;;;20.42;60.32;95045.97;4913628;29;20384;-81
2023/09/22 00:29:31;;;;;;;6.65;3.45;;;;;;;20.39;58.02;95049.72;4930590;29;20027;-81
2023/09/22 00:31:57;;;;;;;7.78;3.17;;;;;;;20.38;58.39;95033.50;4913725;29;20028;-82
2023/09/22 00:34:22;;;;;;;8.73;3.13;;;;;;;20.33;58.80;95056.56;4930522;29;20106;-81
2023/09/22 00:36:52;;;;;;;7.45;3.78;;;;;;;20.40;59.04;95039.31;4930731;29;20359;-81
2023/09/22 00:39:18;;;;;;;8.48;3.40;;;;;;;20.41;59.17;95043.66;4929469;29;20038;-82
2023/09/22 00:41:43;;;;;;;7.32;3.25;;;;;;;20.40;59.48;95034.50;4930539;29;20486;-82
2023/09/22 00:44:08;;;;;;;8.93;3.72;;;;;;;20.39;60.09;95037.81;4930897;29;20027;-81
2023/09/22 00:46:34;;;;;;;6.55;3.65;;;;;;;20.42;59.92;95031.25;4930298;29;20514;-82
2023/09/22 00:49:00;;;;;;;7.10;3.40;;;;;;;20.41;60.15;94980.22;4930840;29;20038;-81
2023/09/22 00:51:25;;;;;;;9.40;4.25;;;;;;;20.37;60.33;94946.19;4930051;29;20111;-81
2023/09/22 00:53:51;;;;;;;9.00;3.95;;;;;;;20.33;60.41;94981.94;4930525;29;20028;-82
2023/09/22 00:56:20;;;;;;;9.80;3.58;;;;;;;20.29;60.94;95019.72;4930238;29;20479;-82
2023/09/22 00:58:45;;;;;;;7.22;3.60;;;;;;;20.30;61.63;95047.16;4913027;29;20046;-81
2023/09/22 01:01:11;;;;;;;8.30;4.03;;;;;;;20.35;61.67;95038.03;4912961;29;20023;-80
2023/09/22 01:03:36;;;;;;;10.88;3.85;;;;;;;20.31;61.92;95033.97;4930086;29;20036;-80
2023/09/22 01:06:02;;;;;;;9.18;4.00;;;;;;;20.30;61.78;95016.44;4930484;29;20032;-80
2023/09/22 01:08:27;;;;;;;5.22;3.05;;;;;;;20.25;62.07;95014.38;4912652;29;20107;-80
2023/09/22 01:10:53;;;;;;;8.35;3.97;;;;;;;20.21;62.22;95007.50;4930266;29;20111;-81
2023/09/22 01:13:18;;;;;;;7.88;3.80;;;;;;;20.21;62.66;95007.50;4929733;29;20115;-81
2023/09/22 01:15:43;;;;;;;7.72;4.18;;;;;;;20.26;63.20;95023.53;4930258;29;20491;-81
2023/09/22 01:18:10;;;;;;;10.52;3.80;;;;;;;20.25;63.66;95017.19;4929711;29;20422;-80
2023/09/22 01:20:41;;;;;;;5.82;3.63;;;;;;;20.22;63.82;95015.38;4912816;29;20110;-79
2023/09/22 01:23:07;;;;;;;6.43;3.53;;;;;;;20.23;64.04;95021.72;4897236;29;20431;-79
2023/09/22 01:25:33;;;;;;;6.28;4.50;;;;;;;20.21;63.58;95032.63;4912141;29;20487;-81
2023/09/22 01:27:58;;;;;;;9.75;4.20;;;;;;;20.22;64.12;95042.53;4912469;29;20052;-80
2023/09/22 01:30:24;;;;;;;7.80;4.47;;;;;;;20.19;63.82;95033.13;4929432;29;20045;-80
2023/09/22 01:32:50;;;;;;;11.45;4.43;;;;;;;20.14;63.71;95017.88;4929687;29;20039;-80
2023/09/22 01:35:15;;;;;;;11.02;3.97;;;;;;;20.19;62.94;95013.59;4912264;29;20426;-81
2023/09/22 01:37:50;;;;;;;8.63;3.90;;;;;;;20.18;62.55;95017.63;4930166;29;20023;-80
2023/09/22 01:40:16;;;;;;;13.68;4.40;;;;;;;20.18;62.54;95023.22;4913072;29;20489;-81
2023/09/22 01:42:42;;;;;;;6.03;4.32;;;;;;;20.14;63.27;95017.88;4929442;29;20043;-81
2023/09/22 01:45:08;;;;;;;8.63;4.10;;;;;;;20.13;63.71;95004.44;4930207;29;20519;-81
2023/09/22 01:47:34;;;;;;;5.90;4.03;;;;;;;20.13;63.38;94982.88;4929564;29;20042;-80
2023/09/22 01:49:59;;;;;;;7.22;3.30;;;;;;;20.13;62.57;94966.13;4929735;29;20460;-81
2023/09/22 01:52:25;;;;;;;7.78;3.88;;;;;;;20.07;62.30;94959.75;4911700;29;20436;-80
2023/09/22 01:54:50;;;;;;;7.80;3.78;;;;;;;20.08;63.32;94983.59;4912429;29;20083;-80
2023/09/22 01:57:16;;;;;;;8.35;3.88;;;;;;;20.02;63.79;94976.47;4912199;29;20028;-81
2023/09/22 01:59:42;;;;;;;6.85;3.60;;;;;;;20.04;64.21;94999.78;4927897;29;20063;-81
2023/09/22 02:02:07;;;;;;;5.97;3.50;;;;;;;20.04;64.47;94994.22;4912477;29;20028;-81
2023/09/22 02:04:33;;;;;;;7.82;3.90;;;;;;;20.01;64.40;94995.19;4928874;29;20102;-79
2023/09/22 02:06:59;;;;;;;8.43;3.88;;;;;;;20.01;64.32;94992.41;4929439;29;20027;-80
2023/09/22 02:09:24;;;;;;;10.55;3.92;;;;;;;19.97;63.97;94996.72;4928817;29;20059;-80
2023/09/22 02:11:50;;;;;;;6.45;3.90;;;;;;;19.98;64.27;94976.69;4929251;29;20038;-80
2023/09/22 02:14:16;;;;;;;12.32;8.77;;;;;;;19.98;64.56;94970.34;4912086;29;20035;-80
2023/09/22 02:16:41;;;;;;;18.10;10.85;;;;;;;19.95;64.74;94980.44;4928808;29;20035;-80
2023/09/22 02:19:07;;;;;;;12.95;8.43;;;;;;;19.88;64.86;94995.63;4928975;29;20078;-79
2023/09/22 02:21:32;;;;;;;14.98;7.80;;;;;;;19.84;65.30;94985.94;4928306;29;20407;-80
2023/09/22 02:23:57;;;;;;;10.55;8.13;;;;;;;19.79;65.50;94986.69;4929204;29;20026;-80
2023/09/22 02:26:23;;;;;;;11.55;5.75;;;;;;;19.80;64.96;94969.47;4928034;29;20039;-79
2023/09/22 02:28:51;;;;;;;9.27;5.68;;;;;;;19.81;65.40;94973.78;4911876;29;20028;-79
2023/09/22 02:31:17;;;;;;;10.57;5.90;;;;;;;19.73;65.19;94980.31;4928689;29;20024;-80
2023/09/22 02:33:42;;;;;;;9.13;5.80;;;;;;;19.71;65.32;94980.78;4928819;29;20031;-79
2023/09/22 02:36:08;;;;;;;10.20;5.43;;;;;;;19.67;65.66;94988.66;4928949;29;20322;-80
2023/09/22 02:38:33;;;;;;;9.15;6.15;;;;;;;19.62;65.79;94984.53;4895550;29;20024;-79
2023/09/22 02:40:58;;;;;;;6.25;4.88;;;;;;;19.58;66.36;94994.34;4911834;29;20035;-81
2023/09/22 02:43:24;;;;;;;9.60;5.95;;;;;;;19.54;66.19;94999.38;4928213;29;20232;-80
2023/09/22 02:45:52;;;;;;;8.75;5.75;;;;;;;19.49;66.43;95002.88;4929421;29;20074;-80
2023/09/22 02:48:18;;;;;;;9.18;5.32;;;;;;;19.47;66.34;95005.41;4911437;29;20028;-79
2023/09/22 02:50:45;;;;;;;9.45;5.60;;;;;;;19.42;66.64;94995.75;4928426;29;20042;-79
2023/09/22 02:53:10;;;;;;;9.98;5.60;;;;;;;19.41;66.49;94999.78;4928490;29;20028;-79
2023/09/22 02:55:37;;;;;;;8.13;5.22;;;;;;;19.37;66.49;95005.56;4911304;29;20138;-80
2023/09/22 02:58:03;;;;;;;8.45;5.95;;;;;;;19.35;66.43;95007.34;4928705;29;20055;-80
2023/09/22 03:00:28;;;;;;;10.85;5.53;;;;;;;19.33;67.11;95013.41;4910753;29;20143;-80
2023/09/22 03:02:54;;;;;;;8.77;5.88;;;;;;;19.30;67.50;95013.63;4929993;29;20502;-80
2023/09/22 03:05:19;;;;;;;10.63;6.60;;;;;;;19.27;67.87;95006.25;4932103;29;20030;-80
2023/09/22 03:07:46;;;;;;;8.70;5.43;;;;;;;19.24;67.85;95013.56;4915003;29;20027;-80
2023/09/22 03:10:12;;;;;;;8.27;5.93;;;;;;;19.25;67.72;95025.47;4915351;29;20107;-81
2023/09/22 03:12:38;;;;;;;7.95;5.88;;;;;;;19.26;67.63;95027.00;4915227;29;20204;-79
2023/09/22 03:15:05;;;;;;;9.90;6.38;;;;;;;19.26;67.51;95027.00;4914965;29;20038;-80
2023/09/22 03:17:30;;;;;;;9.10;5.72;;;;;;;19.24;67.83;95032.31;4932541;29;20026;-80
2023/09/22 03:19:58;;;;;;;11.57;6.20;;;;;;;19.19;68.04;95019.84;4915289;29;20027;-80
2023/09/22 03:22:24;;;;;;;8.07;5.13;;;;;;;19.16;67.21;95020.84;4931693;29;20019;-80
2023/09/22 03:24:49;;;;;;;8.60;6.05;;;;;;;19.09;67.35;95015.69;4914737;29;20032;-80
2023/09/22 03:27:15;;;;;;;10.90;5.68;;;;;;;19.04;67.47;95014.41;4931724;29;20054;-80
2023/09/22 03:29:40;;;;;;;13.20;6.35;;;;;;;18.99;67.87;95008.75;4914851;29;20106;-79
2023/09/22 03:32:06;;;;;;;8.07;5.90;;;;;;;18.99;67.22;95011.56;4932363;29;20020;-80
2023/09/22 03:34:32;;;;;;;6.47;4.85;;;;;;;18.87;67.84;95005.09;4932132;29;20120;-80
2023/09/22 03:36:59;;;;;;;10.73;6.07;;;;;;;18.89;68.06;95010.94;4932065;29;20023;-80
2023/09/22 03:39:26;;;;;;;8.95;5.57;;;;;;;18.89;67.88;95010.16;4914869;29;20107;-80
2023/09/22 03:41:52;;;;;;;9.05;5.60;;;;;;;18.86;67.38;95009.13;4932004;29;20501;-79
2023/09/22 03:44:19;;;;;;;9.88;6.10;;;;;;;18.86;68.13;95008.34;4931642;29;20130;-81
2023/09/22 03:46:44;;;;;;;8.90;5.32;;;;;;;18.81;67.39;95010.59;4931744;29;20043;-79
2023/09/22 03:49:10;;;;;;;8.13;4.50;;;;;;;18.64;67.02;94998.47;4914526;29;20441;-79
2023/09/22 03:51:35;;;;;;;9.45;5.18;;;;;;;18.56;67.18;95009.25;4914424;29;20067;-80
2023/09/22 03:54:01;;;;;;;8.02;4.93;;;;;;;18.47;67.36;95003.06;4931302;29;20054;-80
2023/09/22 03:56:26;;;;;;;10.15;5.20;;;;;;;18.48;67.20;94999.03;4914541;29;20110;-80
2023/09/22 03:58:51;;;;;;;11.70;5.00;;;;;;;18.43;67.81;94997.72;4931415;29;20044;-79
2023/09/22 04:01:17;;;;;;;8.23;4.72;;;;;;;18.51;67.79;94998.81;4931590;29;20023;-81
2023/09/22 04:03:43;;;;;;;9.07;5.45;;;;;;;18.52;68.25;94996.78;4914269;29;20083;-80
2023/09/22 04:06:08;;;;;;;9.77;5.55;;;;;;;18.55;68.23;95010.50;4931260;29;20119;-81
2023/09/22 04:08:34;;;;;;;9.90;5.00;;;;;;;18.56;67.58;95014.81;4931723;29;20114;-81
2023/09/22 04:11:02;;;;;;;8.98;5.30;;;;;;;18.61;67.89;95009.81;4931163;29;20404;-80
2023/09/22 04:13:29;;;;;;;9.40;5.53;;;;;;;18.52;68.00;95005.94;4931124;29;20028;-81
2023/09/22 04:16:01;;;;;;;10.65;6.30;;;;;;;18.57;68.41;95007.22;4913893;29;20251;-81
2023/09/22 04:18:29;;;;;;;10.38;5.78;;;;;;;18.58;68.23;95012.34;4930978;29;20028;-81
2023/09/22 04:20:56;;;;;;;9.43;5.80;;;;;;;18.62;68.52;95012.09;4929943;29;20036;-79
2023/09/22 04:23:22;;;;;;;8.38;5.65;;;;;;;18.60;68.42;95011.06;4931003;29;20037;-81
2023/09/22 04:25:48;;;;;;;9.73;5.65;;;;;;;18.55;68.94;95018.09;4930967;29;20036;-81
2023/09/22 04:28:17;;;;;;;9.57;5.53;;;;;;;18.57;68.69;95023.94;4930784;29;20052;-81
2023/09/22 04:30:43;;;;;;;9.05;6.22;;;;;;;18.55;68.79;95018.84;4931002;29;20082;-80
2023/09/22 04:33:10;;;;;;;8.48;6.22;;;;;;;18.49;68.95;95015.25;4913345;29;20491;-82
2023/09/22 04:35:37;;;;;;;8.10;5.70;;;;;;;18.55;68.86;95023.66;4913787;29;20024;-80
2023/09/22 04:38:04;;;;;;;9.98;5.45;;;;;;;18.55;69.03;95020.88;4913692;29;20042;-79
2023/09/22 04:40:36;;;;;;;11.50;6.32;;;;;;;18.56;68.80;95019.63;4930429;29;20059;-79
2023/09/22 04:43:02;;;;;;;10.65;6.28;;;;;;;18.57;68.94;95030.25;4930746;29;20023;-81
2023/09/22 04:45:29;;;;;;;10.50;5.90;;;;;;;18.53;68.87;95021.38;4913600;29;20055;-81
2023/09/22 04:47:55;;;;;;;8.90;6.20;;;;;;;18.53;69.17;95020.63;4930415;29;20039;-82
2023/09/22 04:50:21;;;;;;;10.40;5.70;;;;;;;18.54;68.97;95019.34;4913289;29;20035;-81
2023/09/22 04:52:47;;;;;;;9.55;6.03;;;;;;;18.52;69.31;95025.41;4930830;29;20024;-81
2023/09/22 04:55:16;;;;;;;10.10;6.18;;;;;;;18.57;69.20;95030.25;4913089;29;20028;-81
2023/09/22 04:57:42;;;;;;;9.35;6.85;;;;;;;18.56;69.44;95025.19;4930093;29;20060;-81
2023/09/22 05:00:20;;;;;;;11.23;6.75;;;;;;;18.53;69.74;95021.38;4913051;29;20420;-81
2023/09/22 05:02:46;;;;;;;11.18;6.75;;;;;;;18.60;69.15;95025.75;4930268;29;20028;-81
2023/09/22 05:05:12;;;;;;;10.35;6.35;;;;;;;18.64;69.19;95031.88;4930080;29;20035;-81
2023/09/22 05:07:38;;;;;;;10.15;6.03;;;;;;;18.68;68.57;95038.03;4913047;29;20024;-81
2023/09/22 05:10:04;;;;;;;11.75;6.32;;;;;;;18.64;68.27;95031.88;4912641;29;20038;-80
2023/09/22 05:12:30;;;;;;;11.52;6.07;;;;;;;18.72;67.61;95037.81;4930117;29;20114;-80
2023/09/22 05:14:56;;;;;;;12.77;5.50;;;;;;;18.69;67.37;95036.75;4929769;29;20027;-79
2023/09/22 05:17:22;;;;;;;7.93;4.97;;;;;;;18.67;67.14;95024.56;4930317;29;20418;-81
2023/09/22 05:19:47;;;;;;;9.63;5.22;;;;;;;18.72;66.89;95037.81;4929946;29;20038;-81
2023/09/22 05:22:13;;;;;;;8.80;5.53;;;;;;;18.72;66.67;95046.19;4912638;29;20028;-82
2023/09/22 05:24:51;;;;;;;10.95;5.90;;;;;;;18.65;67.05;95044.56;4929841;29;20039;-79
2023/09/22 05:27:16;;;;;;;12.30;6.50;;;;;;;18.70;67.08;95054.25;4911944;29;20047;-80
2023/09/22 05:29:42;;;;;;;14.50;7.20;;;;;;;18.75;66.62;95064.69;4897041;29;20035;-77
2023/09/22 05:32:09;;;;;;;9.77;6.55;;;;;;;18.70;66.90;95057.03;4896256;29;20067;-79
2023/09/22 05:34:35;;;;;;;9.95;7.25;;;;;;;18.76;66.70;95064.22;4912764;29;20398;-78
2023/09/22 05:37:00;;;;;;;9.88;6.65;;;;;;;18.83;66.61;95074.94;4911969;29;20026;-78
2023/09/22 05:39:26;;;;;;;12.18;7.47;;;;;;;18.80;66.43;95070.31;4896565;29;20039;-78
2023/09/22 05:41:51;;;;;;;13.27;7.05;;;;;;;18.83;66.79;95065.81;4912481;29;20376;-78
2023/09/22 05:44:17;;;;;;;10.57;7.10;;;;;;;18.79;66.71;95063.22;4912035;29;20106;-77
2023/09/22 05:46:43;;;;;;;10.52;6.03;;;;;;;18.86;66.24;95069.63;4929561;29;20024;-77
2023/09/22 05:49:14;;;;;;;9.93;6.53;;;;;;;18.85;66.16;95066.06;4929203;29;20032;-77
2023/09/22 05:51:42;;;;;;;9.60;6.25;;;;;;;18.96;65.93;95073.81;4912575;29;20092;-79
2023/09/22 05:54:08;;;;;;;13.85;7.00;;;;;;;18.97;66.27;95075.31;4896172;29;20058;-79
2023/09/22 05:56:34;;;;;;;10.15;6.50;;;;;;;18.99;66.21;95070.81;4912106;29;20561;-77
2023/09/22 05:59:00;;;;;;;11.30;6.68;;;;;;;19.08;66.42;95072.66;4912195;29;20032;-77
2023/09/22 06:01:26;;;;;;;12.57;6.63;;;;;;;19.06;66.21;95067.59;4895783;29;20190;-77
2023/09/22 06:03:52;;;;;;;12.90;7.57;;;;;;;19.10;66.29;95070.19;4928950;29;20023;-77
2023/09/22 06:06:17;;;;;;;9.05;6.68;;;;;;;19.14;66.24;95065.13;4896118;29;20110;-78
2023/09/22 06:08:45;;;;;;;12.30;7.30;;;;;;;19.21;66.04;95075.09;4911613;29;20132;-77
2023/09/22 06:11:11;;;;;;;20.15;7.75;;;;;;;19.23;66.01;95076.13;4911495;29;20024;-78
2023/09/22 06:13:37;;;;;;;14.85;9.07;;;;;;;19.31;65.87;95068.09;4911952;29;20019;-78
2023/09/22 06:16:02;;;;;;;15.25;8.57;;;;;;;19.39;65.90;95079.59;4911810;29;20168;-78
2023/09/22 06:18:28;;;;;;;17.65;8.70;;;;;;;19.41;65.99;95072.28;4911453;29;20028;-78
2023/09/22 06:20:55;;;;;;;15.40;7.95;;;;;;;19.41;65.87;95074.28;4929026;29;20031;-79
2023/09/22 06:23:22;;;;;;;10.25;7.57;;;;;;;19.50;65.68;95088.84;4911528;29;20027;-78
2023/09/22 06:25:47;;;;;;;12.68;7.28;;;;;;;19.61;65.33;95096.56;4927630;29;20024;-79
2023/09/22 06:28:15;;;;;;;11.52;7.05;;;;;;;19.65;65.08;95082.41;4911224;29;20519;-77
2023/09/22 06:30:41;;;;;;;14.77;8.25;;;;;;;19.72;65.35;95087.53;4911664;29;20028;-78
2023/09/22 06:33:07;;;;;;;12.43;8.07;;;;;;;19.77;65.07;95086.81;4895847;29;20035;-78
2023/09/22 06:35:33;;;;;;;12.63;8.98;;;;;;;19.84;64.62;95092.75;4911571;29;20023;-77
2023/09/22 06:37:59;;;;;;;14.05;9.52;;;;;;;19.95;64.58;95094.06;4910732;29;20058;-78
2023/09/22 06:40:24;;;;;;;14.35;9.52;;;;;;;19.99;64.32;95091.81;4910933;29;20418;-79
2023/09/22 06:42:49;;;;;;;15.52;10.68;;;;;;;20.06;64.38;95094.16;4911358;29;20130;-79
2023/09/22 06:45:16;;;;;;;19.83;11.00;;;;;;;20.19;63.93;95100.13;4911271;29;20024;-77
2023/09/22 06:47:42;;;;;;;16.70;10.15;;;;;;;20.25;63.64;95095.34;4911732;29;20099;-79
2023/09/22 06:50:08;;;;;;;15.45;9.07;;;;;;;20.37;63.46;95101.75;4911038;29;20487;-79
2023/09/22 06:52:34;;;;;;;14.73;9.13;;;;;;;20.47;63.01;95099.53;4895153;29;20098;-76
2023/09/22 06:55:02;;;;;;;13.80;9.13;;;;;;;;;;4927974;29;20063;-79
2023/09/22 06:57:29;;;;;;;14.25;9.65;;;;;;;20.65;62.49;95105.53;4928105;29;20110;-79
2023/09/22 06:59:55;;;;;;;12.45;8.48;;;;;;;20.75;62.28;95108.84;4911306;29;20167;-79
2023/09/22 07:02:21;;;;;;;12.98;9.18;;;;;;;20.86;61.77;95110.94;4911103;29;20109;-79
2023/09/22 07:04:47;;;;;;;9.30;8.13;;;;;;;20.96;61.72;95106.69;4911181;29;20470;-78
2023/09/22 07:07:13;;;;;;;15.65;9.40;;;;;;;21.06;61.38;95113.59;4911288;29;20482;-79
2023/09/22 07:09:43;;;;;;;13.07;8.80;;;;;;;21.15;60.77;95101.41;4911020;29;20394;-79
2023/09/22 07:12:08;;;;;;;12.52;9.23;;;;;;;21.21;60.64;95099.41;4910950;29;20028;-78
2023/09/22 07:14:34;;;;;;;17.30;9.45;;;;;;;21.25;60.56;95111.13;4911042;29;20087;-80
2023/09/22 07:17:00;;;;;;;18.83;8.90;;;;;;;21.37;60.50;95117.53;4911017;29;20107;-79
2023/09/22 07:19:25;;;;;;;20.63;12.48;;;;;;;21.50;60.07;95111.47;4910680;29;20430;-78
2023/09/22 07:21:51;;;;;;;17.50;10.70;;;;;;;21.61;58.89;95109.44;4909428;29;20408;-78
2023/09/22 07:24:17;;;;;;;16.17;9.95;;;;;;;21.68;58.62;95105.41;4928387;29;20091;-80
2023/09/22 07:26:43;;;;;;;13.98;7.45;;;;;;;21.83;58.52;95111.53;4910579;29;20554;-79
2023/09/22 07:29:08;;;;;;;12.55;7.88;;;;;;;21.91;57.90;95111.81;4910211;29;20492;-78
2023/09/22 07:31:34;;;;;;;12.10;7.60;;;;;;;22.04;57.12;95114.09;4909399;29;20439;-78
2023/09/22 07:34:00;;;;;;;15.63;8.10;;;;;;;22.13;57.12;95109.03;4909192;29;20032;-79
2023/09/22 07:36:28;;;;;;;13.88;7.90;;;;;;;22.28;56.90;95114.38;4910737;29;20031;-80
2023/09/22 07:38:54;;;;;;;14.02;8.82;;;;;;;22.40;56.07;95113.09;4911336;29;20312;-79
2023/09/22 07:41:19;;;;;;;14.20;8.20;;;;;;;22.50;55.39;95111.56;4910117;29;20027;-77
2023/09/22 07:43:45;;;;;;;13.90;7.97;;;;;;;22.58;55.40;95114.59;4910275;29;20074;-79
2023/09/22 07:46:10;;;;;;;10.68;6.57;;;;;;;22.67;54.20;95110.78;4910595;29;20487;-79
2023/09/22 07:48:36;;;;;;;10.25;6.15;;;;;;;22.78;54.31;95111.50;4895268;29;20028;-79
2023/09/22 07:51:01;;;;;;;18.23;6.38;;;;;;;22.90;53.75;95105.91;4929697;29;20035;-79
2023/09/22 07:53:27;;;;;;;10.05;6.10;;;;;;;22.95;52.78;95093.91;4914234;29;20102;-78
2023/09/22 07:55:55;;;;;;;9.90;6.10;;;;;;;23.12;52.42;95105.06;4914267;29;20387;-80
2023/09/22 07:58:22;;;;;;;14.13;6.10;;;;;;;23.13;52.38;95101.72;4898622;29;20536;-79
2023/09/22 08:00:47;;;;;;;10.95;4.80;;;;;;;23.33;50.30;95106.22;4931183;29;20039;-78
2023/09/22 08:03:14;;;;;;;8.68;5.05;;;;;;;23.41;50.04;95100.84;4923102;29;20039;-77
2023/09/22 08:05:39;;;;;;;6.50;4.30;;;;;;;23.51;50.30;95105.66;4927405;29;20060;-77
2023/09/22 08:08:05;;;;;;;9.93;4.80;;;;;;;23.64;49.81;95107.13;4912309;29;20062;-78
2023/09/22 08:10:31;;;;;;;10.73;4.57;;;;;;;23.78;49.40;95101.16;4931006;29;20471;-78
2023/09/22 08:12:57;;;;;;;9.63;4.65;;;;;;;23.88;49.04;95092.41;4912966;29;20408;-78
2023/09/22 08:15:23;;;;;;;12.75;4.82;;;;;;;24.06;49.10;95106.56;4930250;29;20487;-78
2023/09/22 08:17:52;;;;;;;9.50;5.43;;;;;;;24.23;48.69;95103.63;4928179;29;20028;-78
2023/09/22 08:20:19;;;;;;;7.35;5.18;;;;;;;24.36;48.70;95094.59;4929135;29;20039;-78
2023/09/22 08:22:47;;;;;;;9.82;5.28;;;;;;;24.61;48.12;95101.78;4928980;29;20204;-78
2023/09/22 08:25:12;;;;;;;8.95;4.78;;;;;;;24.83;47.46;95098.00;4929534;29;20092;-78
2023/09/22 08:27:38;;;;;;;10.23;3.92;;;;;;;25.05;46.88;95097.00;4912454;29;20442;-78
2023/09/22 08:30:10;;;;;;;7.47;4.50;;;;;;;25.29;46.17;95099.03;4897682;29;20415;-78
2023/09/22 08:32:39;;;;;;;9.48;4.28;;;;;;;25.54;45.41;95096.13;4929138;29;20106;-78
2023/09/22 08:35:07;;;;;;;12.18;4.20;;;;;;;25.76;44.28;95090.22;4913614;29;20027;-78
2023/09/22 08:37:33;;;;;;;8.40;3.85;;;;;;;26.02;43.73;95088.81;4913061;29;20352;-78
2023/09/22 08:40:00;;;;;;;8.50;4.07;;;;;;;26.23;43.78;95083.34;4897686;29;20032;-77
2023/09/22 08:42:26;;;;;;;9.18;3.70;;;;;;;26.51;43.08;95071.63;4930410;29;20573;-79
2023/09/22 08:44:52;;;;;;;9.13;3.83;;;;;;;26.81;42.36;95076.97;4912946;29;20110;-77
2023/09/22 08:47:18;;;;;;;8.95;3.78;;;;;;;27.02;42.16;95068.63;4930326;29;20038;-78
2023/09/22 08:49:43;;;;;;;7.30;3.42;;;;;;;27.23;41.66;95075.91;4909242;29;20031;-78
2023/09/22 08:52:09;;;;;;;11.82;4.20;;;;;;;27.51;40.62;95066.84;4920183;29;20087;-78
2023/09/22 08:54:35;;;;;;;11.50;4.00;;;;;;;27.78;39.99;95066.78;4928975;29;20034;-78
2023/09/22 08:57:01;;;;;;;7.80;3.90;;;;;;;28.00;40.17;95069.09;4912922;29;20079;-78
2023/09/22 08:59:27;;;;;;;12.88;4.35;;;;;;;28.29;39.52;95064.28;4930369;29;20036;-78
2023/09/22 09:01:55;;;;;;;7.22;3.72;;;;;;;28.58;39.36;95065.13;4927576;29;20024;-78
2023/09/22 09:04:34;;;;;;;9.95;4.38;;;;;;;28.87;38.09;95065.13;4930261;29;20090;-79
2023/09/22 09:07:02;;;;;;;9.95;3.88;;;;;;;29.16;38.00;95048.91;4896965;29;20035;-79
2023/09/22 09:09:43;;;;;;;14.85;4.20;;;;;;;29.42;37.43;95052.78;4913476;29;20111;-79
2023/09/22 09:12:09;;;;;;;7.30;4.10;;;;;;;29.73;36.07;95043.13;4912727;29;20588;-77
2023/09/22 09:14:40;;;;;;;12.20;4.65;;;;;;;30.00;36.37;95048.47;4912788;29;20449;-78
2023/09/22 09:17:32;;;;;;;11.55;3.90;;;;;;;30.30;35.81;95044.94;4913179;29;20020;-78
2023/09/22 09:20:01;;;;;;;10.43;4.43;;;;;;;30.64;35.70;95033.97;4909867;29;20039;-78
2023/09/22 09:22:36;;;;;;;12.48;4.85;;;;;;;30.97;34.94;95027.69;4912262;29;20190;-79
2023/09/22 09:25:04;;;;;;;10.90;4.05;;;;;;;31.26;34.24;95031.81;4911606;29;20036;-78
2023/09/22 09:27:31;;;;;;;9.50;4.30;;;;;;;31.68;33.73;95034.09;4927964;29;20044;-78
2023/09/22 09:29:56;;;;;;;10.43;4.53;;;;;;;32.09;32.55;95020.59;4928038;29;20035;-82
2023/09/22 09:32:26;;;;;;;12.70;4.35;;;;;;;32.47;31.74;95018.25;4928188;29;20047;-81
2023/09/22 09:34:52;;;;;;;10.95;3.90;;;;;;;32.71;31.30;95011.03;4911932;29;20447;-80
2023/09/22 09:37:19;;;;;;;8.88;3.67;;;;;;;32.94;31.00;95015.75;4912453;29;20020;-81
2023/09/22 09:39:49;;;;;;;7.57;3.60;;;;;;;33.25;31.29;95011.22;4912786;29;20038;-81
2023/09/22 09:42:17;;;;;;;10.80;3.95;;;;;;;33.68;30.04;95020.44;4928315;29;20032;-82
2023/09/22 09:44:48;;;;;;;8.63;3.88;;;;;;;33.97;28.99;95014.91;4929314;29;20024;-81
2023/09/22 09:47:24;;;;;;;14.13;3.58;;;;;;;34.62;28.58;95004.22;4912422;29;20032;-80
2023/09/22 09:49:57;;;;;;;7.18;3.20;;;;;;;35.13;26.92;95009.59;4927552;29;20448;-81
2023/09/22 09:52:35;;;;;;;6.88;3.10;;;;;;;35.75;27.22;94999.81;4896075;29;20028;-81
2023/09/22 09:55:21;;;;;;;7.88;3.60;;;;;;;36.45;25.79;95009.09;4927444;29;20455;-82
2023/09/22 09:57:49;;;;;;;12.10;3.72;;;;;;;37.08;24.36;95001.22;4895518;29;20134;-79
2023/09/22 10:00:21;;;;;;;8.30;3.83;;;;;;;37.65;24.23;95005.72;4929117;29;20117;-79
2023/09/22 10:02:50;;;;;;;9.30;3.65;;;;;;;38.44;23.42;95004.31;4929055;29;20128;-80
2023/09/22 10:05:16;;;;;;;9.15;3.40;;;;;;;39.03;22.35;95005.00;4927501;29;20194;-80
2023/09/22 10:07:44;;;;;;;8.02;3.20;;;;;;;39.63;22.17;95005.59;4911570;29;20109;-79
2023/09/22 10:10:10;;;;;;;8.07;3.22;;;;;;;40.11;21.20;94996.13;4927471;29;20515;-79
2023/09/22 10:12:36;;;;;;;9.60;3.42;;;;;;;40.65;20.73;94999.72;4927539;29;20035;-79
2023/09/22 10:15:04;;;;;;;6.55;3.33;;;;;;;41.06;19.92;94999.72;4927165;29;20031;-79
2023/09/22 10:17:30;;;;;;;8.15;3.15;;;;;;;41.16;19.49;94985.09;4927790;29;20030;-79
2023/09/22 10:19:56;;;;;;;7.88;2.83;;;;;;;41.26;19.36;94986.38;4928668;29;20501;-79
2023/09/22 10:22:21;;;;;;;7.32;3.10;;;;;;;41.28;19.03;94997.25;4927437;29;20016;-80
2023/09/22 10:25:09;;;;;;;7.65;3.47;;;;;;;41.74;18.91;94992.31;4911807;29;20027;-86
2023/09/22 10:27:57;;;;;;;8.63;3.50;;;;;;;42.19;18.33;94988.72;4929603;29;20135;-86
2023/09/22 10:30:30;;;;;;;4.95;3.00;;;;;;;42.62;17.76;94979.91;4911595;29;20032;-82
2023/09/22 10:33:24;;;;;;;10.25;3.22;;;;;;;42.83;17.67;94982.28;4896090;29;20050;-79
2023/09/22 10:35:50;;;;;;;9.05;3.40;;;;;;;43.34;16.89;94977.97;4928487;29;20113;-78
2023/09/22 10:38:15;;;;;;;6.18;2.95;;;;;;;43.76;17.57;94981.91;4911247;29;20150;-77
2023/09/22 10:40:59;;;;;;;8.60;2.90;;;;;;;43.91;16.97;94977.47;4911172;29;20023;-78
2023/09/22 10:43:26;;;;;;;10.43;3.22;;;;;;;43.68;16.74;94970.00;4911228;29;20027;-78
2023/09/22 10:45:52;;;;;;;10.50;3.40;;;;;;;44.03;16.14;94957.66;4911071;29;20035;-79
2023/09/22 10:48:18;;;;;;;6.85;2.88;;;;;;;44.21;16.13;94961.28;4910944;29;20027;-81
2023/09/22 10:50:48;;;;;;;8.77;3.40;;;;;;;44.40;15.91;94945.34;4911070;29;20027;-81
2023/09/22 10:53:14;;;;;;;9.63;3.47;;;;;;;44.73;15.21;94944.41;4926961;29;20483;-80
2023/09/22 10:55:41;;;;;;;10.50;2.80;;;;;;;44.82;15.05;94939.66;4926973;29;20028;-81
2023/09/22 10:58:08;;;;;;;11.70;3.70;;;;;;;44.81;15.42;94946.88;4928431;29;20039;-81
2023/09/22 11:00:39;;;;;;;13.68;3.70;;;;;;;44.49;15.26;94941.34;4927141;29;20024;-81
2023/09/22 11:03:05;;;;;;;;;;;;;;;44.57;15.36;94926.41;4896311;29;20428;-81
2023/09/22 11:05:30;;;;;;;7.18;3.00;;;;;;;44.39;15.74;94923.59;4911136;29;19926;-78
2023/09/22 11:07:56;;;;;;;14.18;2.92;;;;;;;44.32;14.93;94921.88;4926962;29;20495;-80
2023/09/22 11:10:22;;;;;;;9.93;3.00;;;;;;;44.27;14.99;94920.22;4925578;29;20032;-81
2023/09/22 11:12:52;;;;;;;8.52;3.20;;;;;;;44.20;14.88;94924.31;4925408;29;20400;-79
2023/09/22 11:15:18;;;;;;;12.15;3.20;;;;;;;43.84;15.09;94921.47;4926884;29;20050;-80
2023/09/22 11:17:46;;;;;;;6.13;2.58;;;;;;;44.29;15.48;94916.69;4926875;29;20036;-80
2023/09/22 11:20:27;;;;;;;8.55;3.15;;;;;;;44.22;15.52;94912.81;4926546;29;20051;-80
2023/09/22 11:22:53;;;;;;;14.38;3.28;;;;;;;44.29;15.24;94899.31;4928473;29;20027;-79
2023/09/22 11:25:21;;;;;;;13.05;3.25;;;;;;;43.62;15.49;94912.63;4898174;29;20115;-79
2023/09/22 11:27:50;;;;;;;12.38;3.97;;;;;;;42.61;16.82;94915.59;4930615;29;20316;-80